Time;durP1;ratioP1;P1;durP2;ratioP2;P2;SDS_P1;SDS_P2;PMS_P1;PMS_P2;Temp;Humidity;BMP_temperature;BMP_pressure;BME280_temperature;BME280_humidity;BME280_pressure;Samples;Min_cycle;Max_cycle;Signal;HPM_P1;HPM_P2
2022/05/21 00:00:01;;;;;;;2.72;2.25;;;23.70;80.10;;;;;;5114724;28;20058;-74
2022/05/21 00:02:26;;;;;;;3.60;2.03;;;23.70;81.70;;;;;;5114956;28;20429;-74
2022/05/21 00:04:52;;;;;;;3.42;2.00;;;23.60;80.00;;;;;;5113882;28;20520;-74
2022/05/21 00:07:18;;;;;;;2.65;1.98;;;23.60;81.80;;;;;;5114844;28;20444;-74
2022/05/21 00:10:02;;;;;;;3.45;2.42;;;23.60;82.70;;;;;;5113442;28;20024;-74
2022/05/21 00:12:28;;;;;;;2.90;2.05;;;23.40;85.80;;;;;;5114770;28;20023;-74
2022/05/21 00:14:53;;;;;;;5.15;1.90;;;23.40;88.10;;;;;;5113624;28;20096;-74
2022/05/21 00:17:20;;;;;;;2.78;2.10;;;23.30;90.30;;;;;;5114357;28;20104;-74
2022/05/21 00:19:45;;;;;;;2.95;1.90;;;23.20;90.70;;;;;;5113877;28;20024;-74
2022/05/21 00:22:11;;;;;;;2.75;2.20;;;23.10;91.30;;;;;;5114428;28;20448;-74
2022/05/21 00:24:37;;;;;;;3.63;2.10;;;22.90;91.60;;;;;;5113891;27;20024;-75
2022/05/21 00:27:03;;;;;;;2.85;1.73;;;22.80;92.00;;;;;;5116456;27;20415;-73
2022/05/21 00:29:29;;;;;;;2.85;2.03;;;22.80;93.40;;;;;;5133538;27;20019;-73
2022/05/21 00:31:55;;;;;;;2.58;2.28;;;22.70;94.30;;;;;;5133828;27;20083;-73
2022/05/21 00:34:21;;;;;;;2.60;2.17;;;22.70;95.10;;;;;;5134693;27;20035;-73
2022/05/21 00:36:47;;;;;;;2.03;1.77;;;22.60;95.90;;;;;;5133914;27;20023;-73
2022/05/21 00:39:12;;;;;;;2.38;2.03;;;22.50;97.10;;;;;;5134368;27;20034;-74
2022/05/21 00:41:41;;;;;;;2.92;2.08;;;22.40;97.60;;;;;;5133807;27;20044;-74
2022/05/21 00:44:08;;;;;;;2.40;1.92;;;22.30;98.30;;;;;;5134245;27;20402;-74
2022/05/21 00:46:38;;;;;;;3.70;2.35;;;22.20;99.00;;;;;;5134488;27;20103;-74
2022/05/21 00:49:20;;;;;;;2.88;1.98;;;22.10;99.30;;;;;;5134915;27;20027;-73
2022/05/21 00:52:17;;;;;;;3.10;2.00;;;22.10;99.90;;;;;;5133807;27;20023;-74
2022/05/21 00:54:59;;;;;;;3.40;1.85;;;22.00;99.90;;;;;;5133772;27;20035;-74
2022/05/21 00:57:45;;;;;;;4.93;1.52;;;21.90;99.90;;;;;;5134310;27;20030;-74
2022/05/21 01:00:20;;;;;;;5.38;1.75;;;21.80;99.90;;;;;;5134384;27;20409;-74
2022/05/21 01:02:47;;;;;;;2.05;1.63;;;21.80;99.90;;;;;;5133337;27;20485;-74
2022/05/21 01:05:16;;;;;;;3.30;1.45;;;21.80;99.90;;;;;;5134082;27;20035;-74
2022/05/21 01:07:44;;;;;;;2.85;1.67;;;21.80;99.90;;;;;;5133562;27;20027;-73
2022/05/21 01:10:12;;;;;;;4.00;1.90;;;21.90;99.90;;;;;;5125367;27;20365;-73
2022/05/21 01:12:45;;;;;;;3.70;1.70;;;21.90;99.90;;;;;;5113245;28;20481;-73
2022/05/21 01:15:14;;;;;;;2.20;1.42;;;21.90;99.90;;;;;;5112898;28;20491;-74
2022/05/21 01:17:40;;;;;;;2.85;1.50;;;22.00;99.90;;;;;;5112709;28;20030;-74
2022/05/21 01:20:09;;;;;;;2.50;1.38;;;22.00;99.90;;;;;;5113045;28;20023;-74
2022/05/21 01:22:46;;;;;;;1.70;1.52;;;22.10;99.90;;;;;;5113285;28;20030;-74
2022/05/21 01:25:14;;;;;;;4.53;1.65;;;22.10;99.90;;;;;;5113289;28;20032;-74
2022/05/21 01:27:41;;;;;;;3.33;1.80;;;22.10;99.90;;;;;;5112862;28;20039;-75
2022/05/21 01:30:09;;;;;;;3.53;1.83;;;22.20;99.90;;;;;;5112717;28;20438;-74
2022/05/21 01:32:35;;;;;;;6.43;1.55;;;22.20;99.90;;;;;;5112766;28;20022;-74
2022/05/21 01:35:01;;;;;;;2.90;1.67;;;22.20;99.90;;;;;;5111954;28;20035;-74
2022/05/21 01:37:28;;;;;;;3.15;2.30;;;22.20;99.90;;;;;;5112875;28;20047;-74
2022/05/21 01:39:54;;;;;;;4.75;1.55;;;22.20;99.90;;;;;;5112264;28;20475;-74
2022/05/21 01:42:20;;;;;;;2.97;1.75;;;22.20;99.90;;;;;;5112850;28;20127;-74
2022/05/21 01:44:52;;;;;;;1.95;1.60;;;22.20;99.90;;;;;;5112309;28;20039;-74
2022/05/21 01:47:18;;;;;;;2.33;1.95;;;22.20;99.90;;;;;;5112940;28;20051;-74
2022/05/21 01:49:44;;;;;;;2.33;1.55;;;22.30;99.90;;;;;;5112240;28;20031;-75
2022/05/21 01:52:11;;;;;;;1.52;1.27;;;22.30;99.90;;;;;;5112639;28;20400;-74
2022/05/21 01:54:37;;;;;;;1.90;1.50;;;22.30;99.90;;;;;;5112632;28;20028;-74
2022/05/21 01:57:04;;;;;;;3.90;2.10;;;22.20;99.90;;;;;;5111765;28;20022;-74
2022/05/21 01:59:30;;;;;;;4.68;1.77;;;22.20;99.90;;;;;;5112277;28;20165;-74
2022/05/21 02:01:56;;;;;;;3.47;2.00;;;22.20;99.90;;;;;;5112025;28;20055;-74
2022/05/21 02:04:22;;;;;;;3.30;1.73;;;22.20;99.90;;;;;;5112345;28;20023;-73
2022/05/21 02:06:48;;;;;;;2.80;1.70;;;22.20;99.90;;;;;;5111984;28;20030;-73
2022/05/21 02:09:15;;;;;;;2.72;1.75;;;22.20;99.90;;;;;;5112189;28;20380;-74
2022/05/21 02:11:41;;;;;;;4.47;1.80;;;22.20;99.90;;;;;;5112386;28;20031;-74
2022/05/21 02:14:08;;;;;;;1.70;1.40;;;22.20;99.90;;;;;;5111666;28;20056;-74
2022/05/21 02:16:36;;;;;;;3.78;1.90;;;22.20;99.90;;;;;;5112316;28;20027;-73
2022/05/21 02:19:03;;;;;;;3.85;1.65;;;22.10;99.90;;;;;;5111724;28;20409;-74
2022/05/21 02:21:30;;;;;;;2.60;1.88;;;22.20;99.90;;;;;;5112279;28;20026;-74
2022/05/21 02:23:56;;;;;;;2.75;1.60;;;22.20;99.90;;;;;;5111719;28;20027;-74
2022/05/21 02:26:23;;;;;;;3.53;1.95;;;22.20;99.90;;;;;;5112371;28;20026;-74
2022/05/21 02:28:48;;;;;;;3.55;2.03;;;22.20;99.90;;;;;;5110402;28;20035;-74
2022/05/21 02:31:14;;;;;;;4.80;2.08;;;22.20;99.90;;;;;;5113335;28;20027;-74
2022/05/21 02:33:40;;;;;;;2.75;1.75;;;22.20;99.90;;;;;;5116613;28;20062;-74
2022/05/21 02:41:36;;;;;;;3.22;2.10;;;22.10;99.90;;;;;;5116164;28;20176;-74
2022/05/21 02:44:02;;;;;;;2.25;1.80;;;22.10;99.90;;;;;;5115616;28;20461;-74
2022/05/21 02:46:27;;;;;;;3.03;1.83;;;22.10;99.90;;;;;;5116270;28;20136;-74
2022/05/21 02:48:53;;;;;;;4.07;1.70;;;22.10;99.90;;;;;;5115536;28;20043;-74
2022/05/21 02:51:19;;;;;;;2.33;1.80;;;22.00;99.90;;;;;;5116152;28;20464;-75
2022/05/21 02:53:45;;;;;;;3.95;2.45;;;21.90;99.90;;;;;;5115791;28;20024;-79
2022/05/21 02:56:14;;;;;;;4.30;2.10;;;21.80;99.90;;;;;;5115855;28;20046;-75
2022/05/21 02:58:40;;;;;;;2.63;1.92;;;21.60;99.90;;;;;;5115989;28;20030;-75
2022/05/21 03:01:05;;;;;;;2.30;1.50;;;21.50;99.90;;;;;;5115364;28;20102;-75
2022/05/21 03:03:31;;;;;;;2.90;1.45;;;21.40;99.90;;;;;;5116200;28;20034;-75
2022/05/21 03:05:58;;;;;;;3.75;1.50;;;21.30;99.90;;;;;;5115363;28;20035;-74
2022/05/21 03:11:07;;;;;;;2.67;1.58;;;21.10;99.90;;;;;;5113999;28;20057;-74
2022/05/21 03:13:34;;;;;;;2.42;1.30;;;20.90;99.90;;;;;;5115823;28;20027;-73
2022/05/21 03:16:00;;;;;;;4.20;1.48;;;20.80;99.90;;;;;;5114551;28;20053;-72
2022/05/21 03:18:25;;;;;;;1.42;1.17;;;20.80;99.90;;;;;;5115408;28;20106;-74
2022/05/21 03:20:52;;;;;;;1.60;1.23;;;20.70;99.90;;;;;;5115036;28;20030;-75
2022/05/21 03:23:17;;;;;;;3.05;1.10;;;20.70;99.90;;;;;;5115688;28;20020;-73
2022/05/21 03:25:43;;;;;;;3.92;1.15;;;20.70;99.90;;;;;;5115497;28;20068;-73
2022/05/21 03:28:17;;;;;;;1.20;0.90;;;20.60;99.90;;;;;;5114906;28;20031;-73
2022/05/21 03:30:43;;;;;;;2.17;1.25;;;20.50;99.90;;;;;;5115356;28;20487;-74
2022/05/21 03:33:08;;;;;;;1.52;0.90;;;20.50;99.90;;;;;;5114478;28;20035;-73
2022/05/21 03:35:53;;;;;;;3.15;1.20;;;20.40;99.90;;;;;;5115523;28;20031;-73
2022/05/21 03:38:19;;;;;;;1.10;0.98;;;20.30;99.90;;;;;;5114950;28;20047;-73
2022/05/21 03:40:45;;;;;;;2.65;1.45;;;20.30;99.90;;;;;;5115229;28;20055;-73
2022/05/21 03:43:11;;;;;;;1.50;1.05;;;20.30;99.90;;;;;;5113546;28;20031;-73
2022/05/21 03:45:36;;;;;;;1.92;1.42;;;20.30;99.90;;;;;;5115179;28;20030;-74
2022/05/21 03:48:05;;;;;;;1.23;1.10;;;20.30;99.90;;;;;;5114242;28;20062;-73
2022/05/21 03:50:32;;;;;;;0.93;0.82;;;20.20;99.90;;;;;;5115041;28;20487;-74
2022/05/21 03:52:59;;;;;;;0.90;0.90;;;20.20;99.90;;;;;;5114409;28;20460;-75
2022/05/21 03:55:25;;;;;;;3.30;1.75;;;20.30;99.90;;;;;;5114613;28;20035;-75
2022/05/21 03:57:51;;;;;;;2.17;1.33;;;20.30;99.90;;;;;;5114279;28;20127;-75
2022/05/21 04:00:18;;;;;;;1.30;1.20;;;20.30;99.90;;;;;;5114650;28;20024;-74
2022/05/21 04:02:44;;;;;;;2.33;1.30;;;20.30;99.90;;;;;;5114793;28;20106;-74
2022/05/21 04:05:11;;;;;;;1.77;1.20;;;20.30;99.90;;;;;;5113769;28;20331;-73
2022/05/21 04:07:39;;;;;;;1.70;1.17;;;20.30;99.90;;;;;;5113334;28;20418;-73
2022/05/21 04:10:06;;;;;;;1.05;0.90;;;20.20;99.90;;;;;;5113921;28;20027;-74
2022/05/21 04:12:32;;;;;;;2.92;1.55;;;20.20;99.90;;;;;;5114648;28;20525;-73
2022/05/21 04:14:57;;;;;;;1.60;1.23;;;20.10;99.90;;;;;;5113424;28;20044;-73
2022/05/21 04:17:23;;;;;;;3.22;1.30;;;20.10;99.90;;;;;;5114842;28;20032;-74
2022/05/21 04:19:49;;;;;;;3.72;0.98;;;20.10;99.90;;;;;;5114715;28;20024;-72
2022/05/21 04:22:14;;;;;;;2.47;1.20;;;20.10;99.90;;;;;;5113753;28;20027;-74
2022/05/21 04:24:40;;;;;;;2.42;1.50;;;20.10;99.90;;;;;;5114336;28;20032;-74
2022/05/21 04:27:07;;;;;;;1.77;1.17;;;20.10;99.90;;;;;;5113258;28;20032;-74
2022/05/21 04:29:34;;;;;;;1.40;0.90;;;20.10;99.90;;;;;;5114583;28;20480;-74
2022/05/21 04:32:00;;;;;;;2.70;1.65;;;20.10;99.90;;;;;;5113791;28;20042;-75
2022/05/21 04:34:26;;;;;;;2.17;1.00;;;20.10;99.90;;;;;;5112791;28;20031;-75
2022/05/21 04:36:51;;;;;;;1.73;1.27;;;20.10;99.90;;;;;;5112573;28;20043;-75
2022/05/21 04:39:17;;;;;;;2.75;1.42;;;20.00;99.90;;;;;;5113161;28;20031;-74
2022/05/21 04:41:42;;;;;;;1.95;1.27;;;20.10;99.90;;;;;;5113661;28;20028;-72
2022/05/21 04:44:09;;;;;;;0.80;0.80;;;20.10;99.90;;;;;;5113196;28;20030;-73
2022/05/21 04:46:35;;;;;;;1.55;1.33;;;20.00;99.90;;;;;;5113954;28;20054;-73
2022/05/21 04:49:01;;;;;;;2.25;1.63;;;20.00;99.90;;;;;;5113261;28;20078;-73
2022/05/21 04:51:27;;;;;;;2.33;1.20;;;20.00;99.90;;;;;;5113869;27;20035;-74
2022/05/21 04:53:53;;;;;;;4.40;1.25;;;20.00;99.90;;;;;;5113565;28;20024;-73
2022/05/21 04:56:19;;;;;;;3.95;1.10;;;20.00;99.90;;;;;;5112396;28;20439;-73
2022/05/21 04:58:44;;;;;;;2.33;1.50;;;20.00;99.90;;;;;;5113687;28;20020;-74
2022/05/21 05:01:10;;;;;;;2.10;1.42;;;20.00;99.90;;;;;;5112963;28;20050;-75
2022/05/21 05:03:36;;;;;;;2.75;0.93;;;20.00;99.90;;;;;;5113658;28;20019;-74
2022/05/21 05:06:02;;;;;;;2.63;1.45;;;20.00;99.90;;;;;;5112931;28;20098;-75
2022/05/21 05:08:28;;;;;;;1.63;1.30;;;20.10;99.90;;;;;;5112236;28;20606;-74
2022/05/21 05:10:55;;;;;;;5.10;1.70;;;20.10;99.90;;;;;;5113275;28;20106;-73
2022/05/21 05:13:21;;;;;;;1.65;1.45;;;20.10;99.90;;;;;;5113444;28;20384;-74
2022/05/21 05:15:46;;;;;;;2.08;1.30;;;20.00;99.90;;;;;;5113425;28;20047;-74
2022/05/21 05:18:18;;;;;;;3.85;1.65;;;20.00;99.90;;;;;;5112347;28;20027;-75
2022/05/21 05:20:45;;;;;;;1.35;1.20;;;20.00;99.90;;;;;;5113297;28;20019;-75
2022/05/21 05:23:11;;;;;;;1.73;1.25;;;20.00;99.90;;;;;;5112536;28;20035;-75
2022/05/21 05:25:37;;;;;;;3.22;1.40;;;20.00;99.90;;;;;;5113199;28;20032;-74
2022/05/21 05:28:03;;;;;;;2.95;1.92;;;20.00;99.90;;;;;;5112500;28;20023;-74
2022/05/21 05:30:29;;;;;;;2.15;1.50;;;20.00;99.90;;;;;;5113553;28;20453;-74
2022/05/21 05:32:55;;;;;;;2.08;1.50;;;20.00;99.90;;;;;;5112866;28;20028;-74
2022/05/21 05:35:22;;;;;;;1.95;1.33;;;20.00;99.90;;;;;;5112309;28;20043;-74
2022/05/21 05:37:48;;;;;;;1.40;1.20;;;20.10;99.90;;;;;;5113179;28;20031;-74
2022/05/21 05:40:17;;;;;;;3.95;1.88;;;20.10;99.90;;;;;;5112382;28;20370;-74
2022/05/21 05:42:43;;;;;;;2.63;1.85;;;20.10;99.90;;;;;;5112950;28;20439;-74
2022/05/21 05:45:11;;;;;;;3.97;2.40;;;20.20;99.90;;;;;;5112808;28;20027;-74
2022/05/21 05:47:37;;;;;;;2.35;1.88;;;20.30;99.90;;;;;;5112775;28;20058;-74
2022/05/21 05:50:04;;;;;;;2.47;1.98;;;20.50;99.90;;;;;;5111393;28;20023;-73
2022/05/21 05:52:29;;;;;;;3.85;1.60;;;20.50;99.90;;;;;;5111411;28;20313;-74
2022/05/21 05:54:55;;;;;;;2.25;1.67;;;20.50;99.90;;;;;;5110942;28;20039;-74
2022/05/21 05:57:21;;;;;;;2.65;1.75;;;20.70;99.90;;;;;;5111757;28;20032;-74
2022/05/21 05:59:50;;;;;;;1.60;1.50;;;20.90;99.90;;;;;;5110775;28;20468;-74
2022/05/21 06:05:08;;;;;;;1.90;1.42;;;21.50;99.90;;;;;;5111094;28;20031;-74
2022/05/21 06:07:34;;;;;;;2.47;1.83;;;21.60;99.90;;;;;;5111544;28;20019;-74
2022/05/21 06:10:04;;;;;;;2.22;1.60;;;21.70;99.90;;;;;;5111500;28;20019;-79
2022/05/21 06:12:31;;;;;;;2.17;1.45;;;21.90;99.90;;;;;;5106706;28;20041;-74
2022/05/21 06:14:58;;;;;;;1.98;1.45;;;22.00;99.90;;;;;;5111388;28;20060;-74
2022/05/21 06:17:25;;;;;;;3.95;2.05;;;22.10;99.90;;;;;;5112096;28;20488;-75
2022/05/21 06:19:54;;;;;;;2.90;1.70;;;22.20;99.90;;;;;;5110875;28;20416;-75
2022/05/21 06:22:21;;;;;;;2.53;2.28;;;22.10;99.90;;;;;;5111452;28;20549;-73
2022/05/21 06:24:47;;;;;;;4.00;1.80;;;22.00;99.90;;;;;;5112174;28;20024;-73
2022/05/21 06:27:13;;;;;;;3.20;2.03;;;21.90;99.90;;;;;;5111734;28;20031;-75
2022/05/21 06:29:39;;;;;;;3.55;1.60;;;21.80;99.90;;;;;;5112161;28;20416;-74
2022/05/21 06:32:06;;;;;;;9.65;1.75;;;21.80;99.90;;;;;;5111506;28;20027;-74
2022/05/21 06:34:32;;;;;;;1.88;1.40;;;21.70;99.90;;;;;;5111937;28;20030;-74
2022/05/21 06:37:05;;;;;;;2.25;2.05;;;21.70;99.90;;;;;;5111649;28;20042;-74
2022/05/21 06:39:36;;;;;;;3.95;2.03;;;21.80;99.90;;;;;;5111914;28;20031;-74
2022/05/21 06:42:02;;;;;;;1.60;1.35;;;21.80;99.90;;;;;;5111298;28;20114;-75
2022/05/21 06:44:28;;;;;;;2.63;1.50;;;21.80;99.90;;;;;;5111940;28;20020;-74
2022/05/21 06:46:54;;;;;;;2.72;1.63;;;21.90;99.90;;;;;;5111755;28;20043;-74
2022/05/21 06:49:21;;;;;;;2.78;1.70;;;22.00;99.90;;;;;;5110979;28;20035;-74
2022/05/21 06:51:47;;;;;;;3.72;1.80;;;22.20;99.80;;;;;;5111667;28;20034;-73
2022/05/21 06:54:13;;;;;;;2.38;1.60;;;22.40;99.90;;;;;;5111606;28;20371;-74
2022/05/21 06:56:41;;;;;;;2.53;1.60;;;22.50;97.80;;;;;;5111908;28;20024;-73
2022/05/21 06:59:07;;;;;;;1.92;1.63;;;22.60;97.80;;;;;;5110989;28;20031;-74
2022/05/21 07:01:33;;;;;;;2.65;1.83;;;22.80;96.70;;;;;;5111781;28;20023;-73
2022/05/21 07:03:59;;;;;;;2.45;1.77;;;22.90;95.70;;;;;;5111796;28;20047;-74
2022/05/21 07:09:09;;;;;;;2.15;1.83;;;22.80;95.90;;;;;;5110784;28;20468;-74
2022/05/21 07:11:34;;;;;;;2.80;1.85;;;22.90;95.10;;;;;;5111721;28;20032;-74
2022/05/21 07:14:00;;;;;;;2.10;1.75;;;22.90;94.00;;;;;;5101709;28;20426;-77
2022/05/21 07:16:26;;;;;;;2.25;1.50;;;23.00;94.30;;;;;;5090928;28;20089;-73
2022/05/21 07:18:51;;;;;;;2.38;1.67;;;23.20;93.90;;;;;;5093031;28;20085;-73
2022/05/21 07:21:18;;;;;;;1.70;1.30;;;23.40;93.20;;;;;;5093018;28;20077;-73
2022/05/21 07:23:45;;;;;;;3.08;1.85;;;23.60;90.60;;;;;;5094903;28;20495;-74
2022/05/21 07:26:11;;;;;;;2.85;1.52;;;23.70;89.70;;;;;;5094262;28;20028;-77
2022/05/21 07:28:37;;;;;;;3.20;1.48;;;24.00;88.10;;;;;;5094884;28;20521;-74
2022/05/21 07:31:03;;;;;;;1.90;1.48;;;24.20;85.40;;;;;;5093951;28;20032;-74
2022/05/21 07:33:29;;;;;;;2.92;1.70;;;24.30;84.30;;;;;;5094899;28;20028;-74
2022/05/21 07:35:54;;;;;;;2.45;1.30;;;24.40;80.20;;;;;;5094773;28;20031;-73
2022/05/21 07:38:20;;;;;;;2.28;1.77;;;24.30;79.00;;;;;;5094169;28;20396;-72
2022/05/21 07:40:47;;;;;;;2.00;1.25;;;24.40;76.50;;;;;;5098506;28;20098;-73
2022/05/21 07:43:17;;;;;;;1.50;1.40;;;24.60;77.60;;;;;;5114318;28;20032;-73
2022/05/21 07:45:44;;;;;;;1.27;1.17;;;24.60;73.90;;;;;;5114736;28;20030;-73
2022/05/21 07:48:12;;;;;;;2.30;1.58;;;24.90;75.10;;;;;;5114124;28;20069;-74
2022/05/21 07:50:40;;;;;;;3.10;1.65;;;25.10;73.90;;;;;;5111978;28;20020;-73
2022/05/21 07:53:24;;;;;;;2.25;1.35;;;25.20;73.60;;;;;;5113531;28;20024;-73
2022/05/21 07:55:51;;;;;;;1.58;1.48;;;25.50;72.60;;;;;;5111493;28;20034;-72
2022/05/21 07:58:18;;;;;;;2.45;1.40;;;25.70;72.30;;;;;;5110682;28;20129;-74
2022/05/21 08:00:44;;;;;;;1.58;1.40;;;25.90;70.30;;;;;;5113529;27;20035;-73
2022/05/21 08:03:10;;;;;;;1.73;1.30;;;26.20;69.10;;;;;;5115467;27;20023;-73
2022/05/21 08:05:37;;;;;;;1.70;1.30;;;26.50;67.40;;;;;;5114885;28;20032;-73
2022/05/21 08:08:03;;;;;;;1.45;1.30;;;26.60;64.50;;;;;;5114110;28;20028;-73
2022/05/21 08:10:29;;;;;;;3.63;1.40;;;26.60;62.10;;;;;;5114418;28;20102;-74
2022/05/21 08:12:55;;;;;;;1.38;1.20;;;26.80;62.40;;;;;;5114530;28;20107;-72
2022/05/21 08:15:22;;;;;;;1.60;1.40;;;27.00;61.00;;;;;;5113841;28;20043;-73
2022/05/21 08:17:47;;;;;;;1.80;1.60;;;27.10;60.60;;;;;;5105993;28;20145;-74
2022/05/21 08:20:15;;;;;;;3.70;1.48;;;27.00;60.10;;;;;;5092957;28;20056;-73
2022/05/21 08:28:13;;;;;;;2.35;1.48;;;27.10;59.30;;;;;;5120723;27;20138;-73
2022/05/21 08:30:46;;;;;;;3.08;2.35;;;27.00;58.50;;;;;;5093344;28;20024;-72
2022/05/21 08:33:12;;;;;;;3.45;1.92;;;26.90;58.00;;;;;;5092731;28;20019;-73
2022/05/21 08:35:38;;;;;;;1.40;1.30;;;26.70;56.70;;;;;;5093369;28;20067;-73
2022/05/21 08:38:06;;;;;;;1.42;1.10;;;26.50;57.80;;;;;;5093669;28;20028;-73
2022/05/21 08:40:37;;;;;;;1.73;1.10;;;26.10;58.70;;;;;;5093699;28;20028;-73
2022/05/21 08:43:05;;;;;;;2.22;1.55;;;26.10;60.30;;;;;;5093078;28;20509;-74
2022/05/21 08:45:45;;;;;;;1.45;1.25;;;26.00;59.50;;;;;;5093000;28;20031;-74
2022/05/21 08:48:11;;;;;;;1.60;1.27;;;26.00;61.70;;;;;;5092800;28;20028;-73
2022/05/21 08:50:44;;;;;;;1.88;1.35;;;26.10;62.00;;;;;;5093186;28;20039;-73
2022/05/21 08:53:15;;;;;;;3.67;1.20;;;25.90;58.40;;;;;;5092265;28;20020;-71
2022/05/21 08:55:45;;;;;;;1.85;1.23;;;25.90;59.20;;;;;;5092781;28;20422;-72
2022/05/21 08:58:23;;;;;;;1.45;0.90;;;25.70;55.70;;;;;;5092540;28;20073;-73
2022/05/21 09:00:49;;;;;;;1.23;0.93;;;25.50;55.30;;;;;;5092930;28;20035;-72
2022/05/21 09:03:18;;;;;;;1.00;0.90;;;25.40;56.50;;;;;;5091679;28;20024;-73
2022/05/21 09:06:04;;;;;;;2.42;1.20;;;25.40;57.80;;;;;;5092686;28;20020;-72
2022/05/21 09:08:45;;;;;;;1.13;0.93;;;25.30;58.70;;;;;;5092128;28;20039;-73
2022/05/21 09:11:18;;;;;;;2.15;1.27;;;25.10;60.10;;;;;;5091975;28;20028;-74
2022/05/21 09:13:55;;;;;;;1.58;1.00;;;25.10;60.60;;;;;;5098990;28;20104;-73
2022/05/21 09:19:08;;;;;;;1.88;1.20;;;24.90;60.20;;;;;;5112847;28;20035;-73
2022/05/21 09:21:37;;;;;;;3.10;1.50;;;24.70;60.00;;;;;;5112842;28;20027;-73
2022/05/21 09:24:05;;;;;;;1.23;0.93;;;24.70;61.60;;;;;;5111383;28;20460;-73
2022/05/21 09:26:51;;;;;;;1.30;1.20;;;24.70;60.80;;;;;;5110689;28;20043;-73
2022/05/21 09:29:25;;;;;;;2.08;1.42;;;24.50;61.20;;;;;;5112221;28;20065;-73
2022/05/21 09:31:53;;;;;;;1.10;1.00;;;24.50;61.70;;;;;;5112730;28;20114;-73
2022/05/21 09:34:32;;;;;;;2.20;1.50;;;24.50;61.20;;;;;;5112139;28;20447;-73
2022/05/21 09:37:00;;;;;;;1.73;1.20;;;24.50;61.20;;;;;;5112811;28;20078;-73
2022/05/21 09:39:39;;;;;;;1.30;1.20;;;24.40;59.30;;;;;;5112021;28;20039;-72
2022/05/21 09:45:22;;;;;;;1.50;1.02;;;24.30;58.60;;;;;;5112638;28;20108;-72
2022/05/21 09:48:07;;;;;;;3.28;1.00;;;24.30;57.30;;;;;;5112374;28;20024;-73
2022/05/21 09:50:57;;;;;;;1.25;0.90;;;24.40;58.20;;;;;;5111796;28;20102;-72
2022/05/21 09:53:31;;;;;;;1.50;1.40;;;24.50;56.90;;;;;;5110313;28;20333;-73
2022/05/21 09:56:22;;;;;;;1.08;0.98;;;24.60;57.10;;;;;;5112338;28;20035;-73
2022/05/21 09:58:51;;;;;;;1.40;0.90;;;24.80;55.30;;;;;;5104670;28;20035;-72
2022/05/21 10:01:42;;;;;;;0.90;0.82;;;24.90;55.70;;;;;;5110153;28;20023;-72
2022/05/21 10:04:29;;;;;;;1.52;1.15;;;25.00;54.30;;;;;;5112686;28;20020;-73
2022/05/21 10:10:58;;;;;;;1.42;1.10;;;25.00;53.60;;;;;;5112639;28;20053;-73
2022/05/21 10:12:48;;;;;;;0.98;0.75;;;25.10;52.00;;;;;;5112334;28;20113;-73
2022/05/21 10:15:21;;;;;;;1.73;1.10;;;25.10;50.90;;;;;;5111300;28;20118;-74
2022/05/21 10:18:01;;;;;;;1.00;0.90;;;25.10;50.50;;;;;;5113006;28;20074;-74
2022/05/21 10:20:34;;;;;;;0.80;0.80;;;25.20;50.90;;;;;;5111970;28;20077;-72
2022/05/21 10:23:26;;;;;;;1.80;1.08;;;25.20;51.30;;;;;;5111350;28;20534;-74
2022/05/21 10:26:20;;;;;;;1.23;0.93;;;25.30;51.50;;;;;;5111070;28;20494;-73
2022/05/21 10:29:16;;;;;;;0.82;0.82;;;25.40;52.30;;;;;;5112513;28;20032;-74
2022/05/21 10:31:44;;;;;;;2.85;1.15;;;25.50;50.40;;;;;;5112398;28;20460;-73
2022/05/21 10:34:33;;;;;;;1.50;0.80;;;25.50;51.50;;;;;;5112553;28;20027;-74
2022/05/21 10:37:24;;;;;;;1.30;1.00;;;25.50;51.00;;;;;;5112277;28;20139;-72
2022/05/21 10:39:56;;;;;;;4.20;1.15;;;25.40;51.30;;;;;;5112098;28;20526;-72
2022/05/21 10:42:47;;;;;;;1.23;1.08;;;25.40;51.70;;;;;;5111683;28;20098;-73
2022/05/21 10:45:32;;;;;;;2.40;1.00;;;25.30;51.90;;;;;;5112166;28;20024;-73
2022/05/21 10:48:21;;;;;;;1.00;0.93;;;25.30;50.50;;;;;;5112302;28;20027;-73
2022/05/21 10:50:54;;;;;;;0.90;0.82;;;25.20;50.40;;;;;;5112245;28;20471;-73
2022/05/21 10:53:51;;;;;;;1.25;0.90;;;25.10;49.90;;;;;;5114596;28;20054;-73
2022/05/21 10:56:28;;;;;;;3.33;1.10;;;25.10;49.50;;;;;;5115315;28;20396;-74
2022/05/21 10:59:16;;;;;;;1.35;1.25;;;25.10;49.90;;;;;;5116218;28;20030;-73
2022/05/21 11:01:56;;;;;;;1.08;0.98;;;25.30;50.50;;;;;;5116120;28;20065;-74
2022/05/21 11:04:21;;;;;;;1.07;0.80;;;25.30;50.30;;;;;;5115411;28;20023;-73
2022/05/21 11:06:55;;;;;;;0.93;0.93;;;25.30;49.60;;;;;;5115550;28;20034;-72
2022/05/21 11:09:42;;;;;;;1.10;0.98;;;25.10;49.70;;;;;;5115363;28;20035;-73
2022/05/21 11:12:22;;;;;;;1.17;1.13;;;25.10;49.40;;;;;;5116303;28;20024;-73
2022/05/21 11:15:03;;;;;;;1.30;0.90;;;25.10;50.00;;;;;;5115907;28;20120;-73
2022/05/21 11:17:35;;;;;;;;;;;25.10;51.00;;;;;;5115664;28;20031;-73
2022/05/21 11:20:03;;;;;;;1.40;1.10;;;25.20;49.70;;;;;;5114478;28;19930;-73
2022/05/21 11:25:44;;;;;;;1.20;1.10;;;25.20;50.00;;;;;;5114109;28;20058;-74
2022/05/21 11:28:25;;;;;;;1.75;0.80;;;25.30;49.70;;;;;;5115368;27;20027;-73
2022/05/21 11:31:00;;;;;;;1.95;1.10;;;25.30;48.90;;;;;;5115249;28;20034;-73
2022/05/21 11:39:13;;;;;;;0.68;0.68;;;25.30;47.00;;;;;;5115222;28;20046;-73
2022/05/21 11:41:58;;;;;;;3.13;0.90;;;25.30;46.90;;;;;;5114430;28;20027;-73
2022/05/21 11:45:01;;;;;;;0.70;0.70;;;25.30;47.60;;;;;;5114509;28;20037;-74
2022/05/21 11:47:27;;;;;;;1.02;0.68;;;25.40;47.30;;;;;;5114517;28;20046;-74
2022/05/21 11:49:52;;;;;;;0.70;0.70;;;25.50;46.40;;;;;;5115100;28;20020;-74
2022/05/21 11:52:27;;;;;;;0.80;0.80;;;25.50;44.90;;;;;;5114845;28;20080;-79
2022/05/21 11:55:09;;;;;;;3.22;0.93;;;25.40;45.10;;;;;;5113347;28;20047;-72
2022/05/21 11:57:39;;;;;;;0.98;0.90;;;25.30;45.50;;;;;;5113889;28;20069;-73
2022/05/21 12:00:17;;;;;;;1.08;0.80;;;25.30;45.10;;;;;;5114498;28;20020;-73
2022/05/21 12:02:54;;;;;;;1.17;0.90;;;25.20;45.90;;;;;;5114105;28;20031;-74
2022/05/21 12:05:40;;;;;;;1.52;0.73;;;25.10;45.90;;;;;;5113396;28;20028;-73
2022/05/21 12:08:25;;;;;;;1.27;1.02;;;25.10;46.40;;;;;;5114682;28;20414;-72
2022/05/21 12:10:58;;;;;;;0.80;0.80;;;25.10;46.10;;;;;;5107613;28;20028;-73
2022/05/21 12:13:35;;;;;;;0.70;0.70;;;25.10;46.10;;;;;;5097760;28;20024;-74
2022/05/21 12:16:21;;;;;;;1.00;0.90;;;25.10;44.70;;;;;;5111585;28;20050;-74
2022/05/21 12:19:00;;;;;;;0.85;0.80;;;25.10;44.20;;;;;;5112363;28;20530;-75
2022/05/21 12:21:29;;;;;;;1.67;0.73;;;25.10;44.70;;;;;;5112267;28;20055;-73
2022/05/21 12:23:58;;;;;;;0.65;0.65;;;25.10;43.80;;;;;;5114756;28;20031;-73
2022/05/21 12:26:36;;;;;;;1.10;0.65;;;25.10;44.10;;;;;;5114045;28;20035;-72
2022/05/21 12:29:16;;;;;;;0.73;0.73;;;25.00;43.50;;;;;;5114343;28;20030;-72
2022/05/21 12:31:52;;;;;;;0.63;0.63;;;25.00;43.90;;;;;;5113722;28;20161;-73
2022/05/21 12:34:56;;;;;;;1.17;0.90;;;25.00;44.40;;;;;;5114478;28;20371;-74
2022/05/21 12:37:36;;;;;;;0.65;0.65;;;25.00;44.60;;;;;;5053621;28;20370;-75
2022/05/21 12:40:02;;;;;;;0.87;0.53;;;25.00;44.70;;;;;;5070988;28;20107;-74
2022/05/21 12:42:43;;;;;;;0.90;0.70;;;25.00;43.80;;;;;;5094522;28;20139;-73
2022/05/21 12:45:11;;;;;;;0.77;0.73;;;25.00;43.80;;;;;;5113960;28;20032;-73
2022/05/21 12:47:40;;;;;;;1.02;0.93;;;25.00;43.60;;;;;;5113178;28;20038;-73
2022/05/21 12:50:18;;;;;;;0.70;0.70;;;25.00;43.30;;;;;;5113941;28;20016;-73
2022/05/21 12:52:46;;;;;;;0.80;0.63;;;25.00;43.20;;;;;;5112876;28;20033;-74
2022/05/21 12:55:20;;;;;;;2.25;0.75;;;25.00;42.30;;;;;;5113621;28;20116;-73
2022/05/21 12:57:46;;;;;;;0.75;0.75;;;24.90;43.60;;;;;;5112643;28;20020;-72
2022/05/21 13:00:14;;;;;;;1.05;0.80;;;24.90;44.10;;;;;;5113498;28;20059;-74
2022/05/21 13:02:43;;;;;;;0.85;0.80;;;24.90;44.00;;;;;;5112956;28;20055;-72
2022/05/21 13:05:12;;;;;;;1.80;0.82;;;24.90;44.80;;;;;;5113788;28;20317;-72
2022/05/21 13:07:41;;;;;;;0.80;0.80;;;25.00;45.30;;;;;;5112662;28;20447;-72
2022/05/21 13:10:58;;;;;;;0.90;0.73;;;25.10;44.10;;;;;;5113588;28;20028;-73
2022/05/21 13:13:24;;;;;;;0.70;0.70;;;25.10;43.10;;;;;;5069742;28;20109;-79
2022/05/21 13:15:58;;;;;;;1.30;0.82;;;25.10;42.60;;;;;;5069254;28;20056;-73
2022/05/21 13:18:40;;;;;;;1.50;0.70;;;25.10;42.80;;;;;;5069928;28;20060;-78
2022/05/21 13:21:20;;;;;;;0.75;0.75;;;25.10;42.60;;;;;;5070373;28;20112;-72
2022/05/21 13:24:04;;;;;;;0.90;0.80;;;25.10;43.10;;;;;;5069706;28;20186;-73
2022/05/21 13:26:32;;;;;;;0.73;0.73;;;25.10;43.20;;;;;;5069583;28;20032;-72
2022/05/21 13:29:20;;;;;;;0.70;0.70;;;25.00;43.50;;;;;;5070157;28;20060;-72
2022/05/21 13:31:49;;;;;;;0.70;0.70;;;25.00;43.10;;;;;;5069404;28;20056;-72
2022/05/21 13:34:23;;;;;;;2.15;0.80;;;25.00;42.60;;;;;;5069878;28;20500;-71
2022/05/21 13:37:01;;;;;;;1.05;0.95;;;25.00;43.10;;;;;;5069260;28;20051;-72
2022/05/21 13:39:32;;;;;;;1.00;0.70;;;25.10;43.80;;;;;;5069449;28;20028;-72
2022/05/21 13:42:05;;;;;;;0.70;0.70;;;25.10;44.00;;;;;;5069950;28;20028;-72